KMMT/MMT METAR and TAF weather

Enter ICAO airport designator
Station Type Date Time Source
KMMT METAR 2020/01/29 12:56 UTC NOAA

KMMT 291256Z 05004KT 10SM FEW100 FEW200 02/02 A3008 RMK AO2A SLP191 T00230023 $


Station Type Date Time Source
KMMT Decoded METAR 2020/01/29 12:56 UTC NOAA

McEntire Air National Guard Weather Facility Base, SC, United States (KMMT) 33-55N 080-48W
Jan 29, 2020 - 07:56 AM EST / 2020.01.29 1256 UTC
Wind: from the NE (050 degrees) at 5 MPH (4 KT):0
Visibility: 10 mile(s):0
Sky conditions: mostly clear
Temperature: 36.1 F (2.3 C)
Dew Point: 36.1 F (2.3 C)
Relative Humidity: 100%
Pressure (altimeter): 30.08 in. Hg (1018 hPa)
ob: KMMT 291256Z 05004KT 10SM FEW100 FEW200 02/02 A3008 RMK AO2A SLP191 T00230023
cycle: 13

Station Type Date Time Source
KMMT TAF 2020/01/29 08:06 UTC NOAA

TAF KMMT 290800Z 2908/3014 19006KT 9999 FEW250 QNH2996INS
BECMG 2911/2912 06004KT 9999 SCT040 SCT250 QNH3006INS
BECMG 2919/2920 06006KT 9999 BKN025 OVC090 620904 QNH3008INS
BECMG 3003/3004 04004KT 8000 -SHRA OVC015 620707 QNH3008INS
BECMG 3007/3008 06004KT 9999 NSW SCT020 OVC040 620707 QNH3010INS TX11/2921Z TNM02/2912Z

Example: see airport list